Flight Track Log - Related Links

Times and Time Zones

All times are in EDT time to prevent confusion due to time zone crossing. See the AWI3780 flight status page for this flight to view local times or setup timezone preferences in your user account.

Time Position Orientation Groundspeed Altitude Reporting Facility
EDT Latitude Longitude Course Direction KTS MPH feet Rate Location/Type
Sat 04:21:00 PM 44.1782 -73.2554 196° South  Level FlightAware Approximate
Sat 04:21:16 PM 44.4933 -73.3161 249° West 203 234 6,600  Level Boston Center
Sat 04:22:00 PM 44.0823 -73.2938 196° South  Level FlightAware Approximate
Sat 04:22:28 PM 44.4286 -73.3500 201° Southwest 208 239 8,000  Level Boston Center
Sat 04:23:00 PM 43.9864 -73.3322 196° South  Level FlightAware Approximate
Sat 04:23:28 PM 44.3514 -73.3692 190° South 259 298 10,100  Level Boston Center
Sat 04:24:00 PM 43.8905 -73.3702 195° South  Level FlightAware Approximate
Sat 04:24:28 PM 44.2386 -73.4019 192° South 310 357 13,500  Level Boston Center
Sat 04:25:00 PM 43.7941 -73.4058 195° South  Level FlightAware Approximate
Sat 04:26:28 PM 44.0569 -73.4511 191° South 335 386 17,700  Level Boston Center
Sat 04:27:28 PM 43.9586 -73.4783 191° South 355 409 18,700 1,400 Climbing Boston Center
Sat 04:28:28 PM 43.8564 -73.5083 192° South 367 422 20,500 1,650 Climbing Boston Center
Sat 04:29:28 PM 43.7519 -73.5350 190° South 380 437 22,000 1,650 Climbing Boston Center
Sat 04:30:28 PM 43.6558 -73.5622 192° South 389 448 23,800 1,600 Climbing Boston Center
Sat 04:31:28 PM 43.5633 -73.6206 205° Southwest 389 448 25,200 1,100 Climbing Boston Center
Sat 04:32:28 PM 43.4750 -73.7047 215° Southwest 375 432 26,000 400 Climbing Boston Center
Sat 04:33:28 PM 43.3758 -73.8056 216° Southwest 402 463 26,000  Level Boston Center
Sat 04:34:28 PM 43.2831 -73.8975 216° Southwest 407 468 26,000  Level Boston Center
Sat 04:35:28 PM 43.1922 -73.9836 215° Southwest 407 468 26,000  Level Boston Center
Sat 04:36:28 PM 43.1142 -74.0614 216° Southwest 407 468 26,000  Level Boston Center
Sat 04:37:28 PM 43.0253 -74.1497 216° Southwest 407 468 26,000  Level Boston Center
Sat 04:38:28 PM 42.9364 -74.2353 215° Southwest 402 463 26,000  Level Boston Center
Sat 04:39:28 PM 42.8686 -74.3014 216° Southwest 397 457 26,000  Level Boston Center
Sat 04:40:28 PM 42.7628 -74.4028 215° Southwest 391 450 26,000  Level Boston Center
Sat 04:41:28 PM 42.6758 -74.4847 215° Southwest 391 450 26,000  Level Boston Center
Sat 04:42:28 PM 42.5889 -74.5692 216° Southwest 391 450 26,000  Level Boston Center
Sat 04:43:28 PM 42.5039 -74.6536 216° Southwest 386 444 26,000  Level Boston Center
Sat 04:44:28 PM 42.4147 -74.7378 215° Southwest 386 444 26,000 -437 Level Boston Center
Sat 04:46:54 PM 42.1978 -74.9389 215° Southwest 381 438 24,500 -1,107 Descending New York Center
Sat 04:47:54 PM 42.1075 -75.0197 214° Southwest 387 445 22,200 -2,186 Descending New York Center
Sat 04:48:52 PM 42.0175 -75.0894 210° Southwest 392 451 20,200 -1,613 Descending New York Center
Sat 04:49:53 PM 41.9381 -75.1567 212° Southwest 382 440 19,000 -590 Descending New York Center
Sat 04:50:54 PM 41.8458 -75.2342 212° Southwest 371 427 19,000  Level New York Center
Sat 04:51:55 PM 41.7619 -75.3008 211° Southwest 366 421 19,000 -763 Level New York Center
Sat 04:52:52 PM 41.6761 -75.3700 211° Southwest 361 415 17,500 -1,780 Descending New York Center
Sat 04:53:53 PM 41.5986 -75.4311 211° Southwest 366 421 15,500 -1,934 Descending New York Center
Sat 04:54:53 PM 41.5211 -75.4950 212° Southwest 346 398 13,600 -1,765 Descending New York Center
Sat 04:55:52 PM 41.4331 -75.5636 210° Southwest 346 398 12,000 -857 Descending New York Center
Sat 04:56:52 PM 41.3708 -75.6117 210° Southwest 341 392 11,900  Descending New York Center
Sat 04:57:53 PM 41.2847 -75.6772 210° Southwest 341 392 12,000 -99 Climbing New York Center
Sat 04:58:53 PM 41.1861 -75.6922 187° South 320 368 11,700 -397 Descending New York Center
Sat 04:59:54 PM 41.1031 -75.6889 178° South 331 381 11,200 -504 Descending New York Center
Sat 05:00:52 PM 41.0092 -75.6875 179° South 331 381 10,700 -559 Descending New York Center
Sat 05:01:52 PM 40.9092 -75.6886 180° South 331 381 10,100 -397 Descending New York Center
Sat 05:02:53 PM 40.8156 -75.6844 178° South 331 381 9,900 -98 Descending New York Center
Sat 05:03:54 PM 40.7322 -75.6375 157° South 326 375 9,900 50 Level New York Center
Sat 05:04:54 PM 40.6633 -75.5861 150° Southeast 326 375 10,000  Climbing New York Center
Sat 05:05:52 PM 40.5764 -75.5225 151° Southeast 326 375 9,900 -51 Descending New York Center
Sat 05:06:52 PM 40.4994 -75.4681 152° Southeast 318 366 9,900  Level New York Center
Sat 05:07:53 PM 40.4242 -75.4167 153° Southeast 318 366 9,900 50 Level New York Center
Sat 05:08:53 PM 40.3531 -75.3764 157° South 311 358 10,000  Climbing New York Center
Sat 05:09:53 PM 40.2672 -75.3272 156° South 311 358 9,900 -655 Descending New York Center
Sat 05:10:52 PM 40.1978 -75.2900 158° South 306 352 8,700 -1,289 Descending New York Center
Sat 05:11:54 PM 40.1244 -75.2472 156° South 299 344 7,300 -1,328 Descending New York Center
Sat 05:12:54 PM 40.0447 -75.2042 158° South 294 338 6,000 -1,525 Descending New York Center
Sat 05:13:56 PM 40.0014 -75.1417 132° Southeast 264 304 4,200 -1,742 Descending New York Center

Login

Don't have an account? Register now (free) for customized features, flight alerts, and more!